Time;durP1;ratioP1;P1;durP2;ratioP2;P2;SDS_P1;SDS_P2;PMS_P1;PMS_P2;Temp;Humidity;BMP_temperature;BMP_pressure;BME280_temperature;BME280_humidity;BME280_pressure;Samples;Min_cycle;Max_cycle;Signal;HPM_P1;HPM_P2
2023/05/19 05:39:50;;;;;;;;;;;;;;;12.68;52.84;98645.44;4967654;28;19935;-63
2023/05/19 05:42:15;;;;;;;;;;;;;;;12.77;53.20;98644.81;4977043;28;20443;-63
2023/05/19 05:44:40;;;;;;;;;;;;;;;12.80;53.43;98647.19;4963702;28;19918;-64
2023/05/19 05:47:06;;;;;;;;;;;;;;;12.93;52.95;98644.56;4969882;28;19933;-64
2023/05/19 05:49:31;;;;;;;;;;;;;;;13.09;52.41;98639.88;4950057;28;19918;-64
2023/05/19 05:51:56;;;;;;;;;;;;;;;13.16;52.87;98642.91;4955918;28;20375;-67
2023/05/19 05:54:23;;;;;;;;;;;;;;;13.28;52.25;98639.41;4962289;28;19922;-64
2023/05/19 05:56:49;;;;;;;;;;;;;;;13.31;52.22;98644.47;4972978;28;19918;-65
2023/05/19 05:59:14;;;;;;;;;;;;;;;13.44;51.60;98644.41;4971042;28;19980;-64
2023/05/19 06:01:40;;;;;;;;;;;;;;;13.45;50.95;98648.72;4957875;28;19925;-65
2023/05/19 06:04:06;;;;;;;;;;;;;;;13.50;51.69;98655.34;4949898;28;20028;-63
2023/05/19 06:06:31;;;;;;;;;;;;;;;13.61;51.54;98651.06;4953468;28;20462;-61
2023/05/19 06:08:56;;;;;;;;;;;;;;;13.62;51.00;98652.75;4960522;28;19922;-62
2023/05/19 06:11:22;;;;;;;;;;;;;;;13.65;51.02;98644.63;4973337;28;19929;-63
2023/05/19 06:13:47;;;;;;;;;;;;;;;13.71;51.05;98641.53;4955697;28;19926;-64
2023/05/19 06:16:12;;;;;;;;;;;;;;;13.71;50.50;98641.53;4954390;28;20303;-64
2023/05/19 06:18:37;;;;;;;;;;;;;;;13.76;50.30;98644.66;4956453;28;20331;-64
2023/05/19 06:21:03;;;;;;;;;;;;;;;13.86;51.22;98636.91;4957605;28;19922;-64
2023/05/19 06:23:29;;;;;;;;;;;;;;;13.77;51.40;98636.66;4957532;28;19961;-65
2023/05/19 06:25:55;;;;;;;;;;;;;;;13.91;50.71;98637.41;4955771;28;19918;-63
2023/05/19 06:28:20;;;;;;;;;;;;;;;13.98;50.76;98633.34;4975064;28;20005;-65
2023/05/19 06:30:45;;;;;;;;;;;;;;;14.08;51.53;98638.78;4957297;28;19914;-64
2023/05/19 06:33:10;;;;;;;;;;;;;;;14.25;50.32;98639.16;4973019;28;19918;-65
2023/05/19 06:35:36;;;;;;;;;;;;;;;14.32;50.15;98639.53;4957244;28;19914;-65
2023/05/19 06:38:01;;;;;;;;;;;;;;;14.52;49.37;98639.81;4971437;28;19918;-65
2023/05/19 06:40:26;;;;;;;;;;;;;;;14.67;49.23;98647.38;4954903;28;19969;-61
2023/05/19 06:42:51;;;;;;;;;;;;;;;14.67;48.77;98641.25;4972245;28;19918;-61
2023/05/19 06:45:20;;;;;;;;;;;;;;;14.80;48.96;98644.63;4973545;28;19925;-61
2023/05/19 06:47:45;;;;;;;;;;;;;;;14.82;48.45;98645.31;4965424;28;19929;-61
2023/05/19 06:50:11;;;;;;;;;;;;;;;15.03;49.02;98639.28;4972601;28;19918;-61
2023/05/19 06:52:36;;;;;;;;;;;;;;;15.21;48.62;98648.41;4971590;28;19929;-61
2023/05/19 06:55:01;;;;;;;;;;;;;;;15.34;47.97;98641.16;4972903;28;19918;-61
2023/05/19 06:57:26;;;;;;;;;;;;;;;15.50;47.29;98638.09;4955505;28;19960;-61
2023/05/19 06:59:51;;;;;;;;;;;;;;;15.57;47.13;98646.38;4970867;28;19926;-61
2023/05/19 07:02:17;;;;;;;;;;;;;;;15.70;47.17;98633.84;4972585;28;20009;-61
2023/05/19 07:04:42;;;;;;;;;;;;;;;15.79;46.16;98634.88;4971780;28;19965;-61
2023/05/19 07:07:07;;;;;;;;;;;;;;;15.95;45.64;98632.63;4965969;28;19918;-61
2023/05/19 07:09:32;;;;;;;;;;;;;;;16.01;46.04;98628.66;4964221;28;19926;-61
2023/05/19 07:11:58;;;;;;;;;;;;;;;16.00;45.36;98622.53;4962262;28;20005;-61
2023/05/19 07:14:23;;;;;;;;;;;;;;;16.04;45.42;98623.94;4966897;28;20021;-61
2023/05/19 07:16:48;;;;;;;;;;;;;;;16.29;45.33;98622.69;4961268;28;19961;-61
2023/05/19 07:19:13;;;;;;;;;;;;;;;16.51;44.34;98624.31;4954357;28;19929;-61
2023/05/19 07:21:39;;;;;;;;;;;;;;;16.61;45.29;98622.56;4959820;28;20013;-63
2023/05/19 07:24:04;;;;;;;;;;;;;;;16.73;45.08;98619.84;4963109;28;19918;-61
2023/05/19 07:26:29;;;;;;;;;;;;;;;16.78;44.75;98618.47;4965009;28;19942;-61
2023/05/19 07:28:54;;;;;;;;;;;;;;;16.79;43.87;98609.56;4953622;28;20001;-62
2023/05/19 07:31:20;;;;;;;;;;;;;;;17.02;43.85;98607.53;4953422;28;20013;-62
2023/05/19 07:33:45;;;;;;;;;;;;;;;17.18;43.15;98599.06;4958462;28;19918;-63
2023/05/19 07:36:10;;;;;;;;;;;;;;;17.46;42.96;98607.19;4967472;28;20012;-63
2023/05/19 07:38:36;;;;;;;;;;;;;;;17.59;42.82;98601.59;4969709;28;20000;-62
2023/05/19 07:41:01;;;;;;;;;;;;;;;17.58;43.38;98600.75;4970945;28;20310;-62
2023/05/19 07:43:26;;;;;;;;;;;;;;;17.66;43.13;98598.25;4951917;28;20310;-62
2023/05/19 07:45:52;;;;;;;;;;;;;;;17.75;42.35;98594.72;4953438;28;19965;-62
2023/05/19 07:48:17;;;;;;;;;;;;;;;17.75;42.83;98597.38;4960158;28;19918;-62
2023/05/19 07:50:43;;;;;;;;;;;;;;;17.88;42.51;98601.59;4964008;28;19922;-62
2023/05/19 07:53:08;;;;;;;;;;;;;;;17.80;42.35;98594.34;4958292;28;19922;-62
2023/05/19 07:55:33;;;;;;;;;;;;;;;18.02;41.83;98601.16;4953956;28;19929;-62
2023/05/19 07:57:58;;;;;;;;;;;;;;;18.21;41.77;98587.84;4957315;28;19918;-62
2023/05/19 08:00:24;;;;;;;;;;;;;;;18.48;41.76;98594.19;4965102;28;19922;-62
2023/05/19 08:02:49;;;;;;;;;;;;;;;18.47;40.86;98595.16;4956490;28;19922;-62
2023/05/19 08:05:14;;;;;;;;;;;;;;;18.87;41.10;98586.91;4958723;28;19918;-62
2023/05/19 08:07:39;;;;;;;;;;;;;;;18.86;40.12;98585.25;4962525;28;20406;-62
2023/05/19 08:10:05;;;;;;;;;;;;;;;18.96;40.41;98582.53;4963896;28;20387;-62
2023/05/19 08:12:31;;;;;;;;;;;;;;;19.05;40.45;98583.44;4947618;28;19918;-62
2023/05/19 08:14:56;;;;;;;;;;;;;;;19.12;40.64;98582.69;4968507;28;19925;-62
2023/05/19 08:17:22;;;;;;;;;;;;;;;19.10;40.31;98578.53;4943852;28;19919;-64
2023/05/19 08:19:47;;;;;;;;;;;;;;;19.15;40.65;98579.72;4957718;28;19968;-60
2023/05/19 08:22:12;;;;;;;;;;;;;;;19.04;40.38;98577.28;4966064;28;19927;-62
2023/05/19 08:24:38;;;;;;;;;;;;;;;19.12;40.22;98572.03;4959351;28;19919;-62
2023/05/19 08:27:03;;;;;;;;;;;;;;;19.07;41.07;98576.16;4937155;28;19992;-61
2023/05/19 08:29:29;;;;;;;;;;;;;;;19.20;40.47;98569.50;4969342;28;20013;-61
2023/05/19 08:31:54;;;;;;;;;;;;;;;19.27;40.36;98575.03;4970895;28;19957;-62
2023/05/19 08:34:19;;;;;;;;;;;;;;;19.46;39.44;98574.03;4969711;28;19918;-61
2023/05/19 08:36:44;;;;;;;;;;;;;;;19.55;39.83;98577.63;4970741;28;19922;-61
2023/05/19 08:39:10;;;;;;;;;;;;;;;19.68;39.26;98564.78;4969619;28;19922;-61
2023/05/19 08:41:35;;;;;;;;;;;;;;;19.67;38.94;98566.59;4950250;28;19922;-62
2023/05/19 08:44:01;;;;;;;;;;;;;;;19.85;38.87;98569.22;4953733;28;20441;-61
2023/05/19 08:46:26;;;;;;;;;;;;;;;19.95;38.24;98560.31;4970232;28;20533;-61
2023/05/19 08:48:57;;;;;;;;;;;;;;;20.18;38.07;98552.66;4954758;28;20507;-60
2023/05/19 08:51:25;;;;;;;;;;;;;;;20.26;38.21;98552.69;4973912;28;19918;-61
2023/05/19 08:53:50;;;;;;;;;;;;;;;20.20;37.71;98550.66;4949387;28;20324;-64
2023/05/19 08:56:21;;;;;;;;;;;;;;;20.09;37.40;98546.44;4973752;28;20030;-62
2023/05/19 08:58:47;;;;;;;;;;;;;;;20.19;37.53;98554.31;4971231;28;19918;-62
2023/05/19 09:01:13;;;;;;;;;;;;;;;20.52;37.28;98555.34;4955493;28;19933;-62
2023/05/19 09:03:38;;;;;;;;;;;;;;;20.26;36.90;98550.84;4956369;28;19973;-62
2023/05/19 09:06:07;;;;;;;;;;;;;;;20.42;36.68;98552.78;4974636;28;19973;-62
2023/05/19 09:08:32;;;;;;;;;;;;;;;20.44;36.56;98542.81;4973417;28;19914;-60
2023/05/19 09:10:58;;;;;;;;;;;;;;;20.37;36.60;98553.28;4973439;28;20034;-62
2023/05/19 09:13:23;;;;;;;;;;;;;;;20.40;36.60;98552.09;4973463;28;19922;-61
2023/05/19 09:15:49;;;;;;;;;;;;;;;20.68;36.67;98546.56;4973785;28;19942;-61
2023/05/19 09:18:14;;;;;;;;;;;;;;;20.89;36.27;98547.00;4973647;28;19966;-62
2023/05/19 09:20:40;;;;;;;;;;;;;;;20.93;35.92;98548.34;4973632;28;19936;-61
2023/05/19 09:23:06;;;;;;;;;;;;;;;20.75;36.22;98550.25;4972597;28;20016;-61
2023/05/19 09:25:31;;;;;;;;;;;;;;;20.73;36.38;98550.44;4974048;28;19918;-61
2023/05/19 09:27:57;;;;;;;;;;;;;;;20.59;37.55;98551.06;4972833;28;19941;-61
2023/05/19 09:30:22;;;;;;;;;;;;;;;20.65;36.86;98552.22;4973566;28;19918;-60
2023/05/19 09:32:47;;;;;;;;;;;;;;;20.58;36.89;98552.91;4973712;28;19933;-60
2023/05/19 09:35:12;;;;;;;;;;;;;;;20.69;36.48;98548.28;4973576;28;19940;-61
2023/05/19 09:37:38;;;;;;;;;;;;;;;20.58;36.94;98555.56;4972316;28;19928;-61
2023/05/19 09:40:04;;;;;;;;;;;;;;;20.18;37.13;98552.66;4955378;28;19949;-62
2023/05/19 09:42:29;;;;;;;;;;;;;;;19.99;37.88;98553.69;4973104;28;20009;-61
2023/05/19 09:44:59;;;;;;;;;;;;;;;19.82;37.96;98550.06;4955950;28;19965;-63
2023/05/19 09:47:24;;;;;;;;;;;;;;;19.89;38.03;98554.66;4955586;28;20299;-62
2023/05/19 09:49:50;;;;;;;;;;;;;;;19.77;38.54;98547.88;4972907;28;19918;-61
2023/05/19 09:52:17;;;;;;;;;;;;;;;19.62;39.26;98544.09;4973764;28;20371;-62
2023/05/19 09:54:42;;;;;;;;;;;;;;;19.62;38.40;98542.25;4955737;28;19922;-62
2023/05/19 09:57:07;;;;;;;;;;;;;;;19.67;38.17;98533.84;4971827;28;19918;-62
2023/05/19 09:59:33;;;;;;;;;;;;;;;19.75;38.07;98541.03;4952153;28;19927;-61
2023/05/19 10:01:58;;;;;;;;;;;;;;;19.86;37.99;98535.50;4956462;28;19918;-62
2023/05/19 10:04:25;;;;;;;;;;;;;;;20.11;37.54;98531.97;4969594;28;19926;-62
2023/05/19 10:06:52;;;;;;;;;;;;;;;20.15;37.42;98529.84;4973374;28;19961;-63
2023/05/19 10:09:19;;;;;;;;;;;;;;;20.26;37.52;98523.41;4972516;28;21745;-63
2023/05/19 10:11:44;;;;;;;;;;;;;;;20.42;36.98;98525.31;4956104;28;19926;-61
2023/05/19 10:14:09;;;;;;;;;;;;;;;20.52;36.68;98516.22;4972337;28;20307;-63
2023/05/19 10:16:35;;;;;;;;;;;;;;;20.78;37.11;98523.28;4972298;28;20339;-62
2023/05/19 10:19:00;;;;;;;;;;;;;;;20.79;36.55;98519.66;4954872;28;19925;-63
2023/05/19 10:21:25;;;;;;;;;;;;;;;20.85;36.63;98516.31;4971927;28;19922;-63
2023/05/19 10:23:50;;;;;;;;;;;;;;;20.83;36.28;98513.00;4955267;28;19918;-64
2023/05/19 10:26:16;;;;;;;;;;;;;;;20.81;36.41;98506.97;4972813;28;20001;-63
2023/05/19 10:28:41;;;;;;;;;;;;;;;21.17;35.71;98498.72;4952317;28;20044;-64
2023/05/19 10:31:07;;;;;;;;;;;;;;;21.16;35.91;98499.69;4955860;28;19979;-63
2023/05/19 10:33:36;;;;;;;;;;;;;;;21.32;35.45;98502.38;4954379;28;20402;-64
2023/05/19 10:36:07;;;;;;;;;;;;;;;21.44;34.95;98497.56;4954730;28;20282;-64
2023/05/19 10:38:41;;;;;;;;;;;;;;;21.50;34.89;98494.25;4936068;28;20364;-64
2023/05/19 10:41:25;;;;;;;;;;;;;;;21.85;35.18;98490.38;4934100;28;20451;-63
2023/05/19 10:44:06;;;;;;;;;;;;;;;22.03;34.63;98485.66;4970006;28;19918;-62
2023/05/19 10:46:31;;;;;;;;;;;;;;;22.36;34.33;98487.41;4972310;28;19918;-63
2023/05/19 10:48:56;;;;;;;;;;;;;;;22.27;33.93;98497.31;4971380;28;19993;-63
2023/05/19 10:51:27;;;;;;;;;;;;;;;22.27;33.78;98489.28;4972269;28;20065;-63
2023/05/19 10:53:52;;;;;;;;;;;;;;;23.15;33.08;98497.00;4951979;28;19922;-63
2023/05/19 10:56:32;;;;;;;;;;;;;;;23.42;32.76;98490.28;4971652;28;19918;-62
2023/05/19 10:58:57;;;;;;;;;;;;;;;23.37;32.00;98489.19;4952496;28;19918;-63
2023/05/19 11:01:28;;;;;;;;;;;;;;;23.26;32.05;98487.72;4972204;28;19926;-63
2023/05/19 11:03:55;;;;;;;;;;;;;;;23.22;32.60;98489.09;4952420;28;19929;-63
2023/05/19 11:06:24;;;;;;;;;;;;;;;23.29;33.61;98483.88;4970723;28;19925;-63
2023/05/19 11:08:53;;;;;;;;;;;;;;;23.22;32.23;98483.75;4970798;28;19922;-63
2023/05/19 11:11:18;;;;;;;;;;;;;;;22.86;32.41;98476.28;4971610;28;19925;-62
2023/05/19 11:13:47;;;;;;;;;;;;;;;23.03;32.83;98484.25;4970744;28;19922;-63
2023/05/19 11:16:12;;;;;;;;;;;;;;;22.89;33.59;98477.78;4969834;28;19956;-62
2023/05/19 11:18:38;;;;;;;;;;;;;;;23.25;32.74;98483.41;4952405;28;19965;-63
2023/05/19 11:21:03;;;;;;;;;;;;;;;23.26;32.14;98474.34;4972118;28;20432;-63
2023/05/19 11:23:29;;;;;;;;;;;;;;;23.52;32.53;98478.50;4969823;28;19918;-62
2023/05/19 11:25:55;;;;;;;;;;;;;;;23.83;31.86;98471.19;4954558;28;19922;-63
2023/05/19 11:28:24;;;;;;;;;;;;;;;23.60;31.64;98465.03;4970202;28;19945;-62
2023/05/19 11:30:50;;;;;;;;;;;;;;;24.06;31.72;98464.94;4953876;28;19973;-62
2023/05/19 11:33:18;;;;;;;;;;;;;;;24.00;31.68;98454.97;4937926;28;20299;-63
2023/05/19 11:35:44;;;;;;;;;;;;;;;24.79;30.97;98445.25;4970451;28;19918;-62
2023/05/19 11:38:10;;;;;;;;;;;;;;;25.92;30.90;98448.13;4969972;28;19988;-63
2023/05/19 11:40:35;;;;;;;;;;;;;;;26.09;28.97;98457.50;4969522;28;20744;-63
2023/05/19 11:43:00;;;;;;;;;;;;;;;26.05;29.13;98450.88;4961167;28;20339;-62
2023/05/19 11:45:26;;;;;;;;;;;;;;;26.33;27.88;98449.97;4972159;28;20008;-63
2023/05/19 11:47:53;;;;;;;;;;;;;;;27.39;27.24;98439.50;4952686;28;20569;-63
2023/05/19 11:50:19;;;;;;;;;;;;;;;28.43;28.84;98438.72;4953971;28;19925;-62
2023/05/19 13:51:41;;;;;;;;;;;;;;;27.93;24.89;98346.78;5132906;23;20293;-61
2023/05/19 13:54:06;;;;;;;;;;;;;;;27.64;25.59;98350.78;4954185;28;19923;-60
2023/05/19 13:56:32;;;;;;;;;;;;;;;27.72;26.32;98344.34;4954162;29;19918;-61
2023/05/19 13:58:57;;;;;;;;;;;;;;;27.34;26.19;98342.34;4953576;28;19918;-62
2023/05/19 14:01:22;;;;;;;;;;;;;;;26.56;27.16;98344.78;4938746;29;19918;-62
2023/05/19 14:03:48;;;;;;;;;;;;;;;26.42;27.67;98352.78;4958679;28;20435;-62
2023/05/19 14:06:13;;;;;;;;;;;;;;;26.15;27.63;98343.84;4950365;28;20504;-62
2023/05/19 19:41:45;;;;;;;;;;;;;;;17.30;50.16;98354.06;6071598;23;20027;31
2023/05/19 19:44:12;;;;;;;;;;;;;;;17.28;50.15;98356.03;4888676;29;19934;-61
2023/05/19 19:46:37;;;;;;;;;;;;;;;17.22;50.23;98366.38;4892274;29;19920;-61
2023/05/19 19:49:02;;;;;;;;;;;;;;;17.15;51.06;98365.28;4888122;29;19920;-61
2023/05/19 19:51:27;;;;;;;;;;;;;;;17.08;51.19;98365.00;4888736;29;19916;-61
2023/05/19 19:53:53;;;;;;;;;;;;;;;16.99;51.72;98365.84;4886302;29;19968;-62
2023/05/19 19:56:18;;;;;;;;;;;;;;;16.98;51.25;98372.13;4878281;29;20298;-62
2023/05/19 19:58:43;;;;;;;;;;;;;;;16.95;51.46;98375.88;4882756;29;20454;-60
2023/05/19 20:01:09;;;;;;;;;;;;;;;16.92;51.74;98364.75;4887719;29;20289;-61
2023/05/19 20:03:36;;;;;;;;;;;;;;;16.82;52.14;98367.38;4887595;29;20208;-62
2023/05/19 20:06:02;;;;;;;;;;;;;;;16.74;52.91;98360.16;4881183;29;20026;-62
2023/05/19 20:08:27;;;;;;;;;;;;;;;16.72;52.36;98364.72;4882731;29;19920;-62
2023/05/19 20:10:52;;;;;;;;;;;;;;;16.72;52.71;98359.41;4884056;29;19923;-62
2023/05/19 20:13:17;;;;;;;;;;;;;;;16.72;52.44;98361.22;4882236;29;19927;-62
2023/05/19 20:15:43;;;;;;;;;;;;;;;16.68;52.86;98358.03;4883839;29;19920;-62
2023/05/19 20:18:08;;;;;;;;;;;;;;;16.64;53.16;98354.00;4886416;29;19920;-63
2023/05/19 20:20:33;;;;;;;;;;;;;;;16.66;52.86;98357.34;4884742;29;19963;-61
2023/05/19 20:22:59;;;;;;;;;;;;;;;16.65;52.97;98354.81;4877770;29;19923;-62
2023/05/19 20:25:24;;;;;;;;;;;;;;;16.55;53.19;98368.06;4882694;29;20449;-62
2023/05/19 20:27:49;;;;;;;;;;;;;;;16.49;53.68;98360.69;4885225;29;19941;-62
2023/05/19 20:30:15;;;;;;;;;;;;;;;16.40;54.36;98358.88;4880588;29;19920;-61
2023/05/19 20:32:40;;;;;;;;;;;;;;;16.36;53.93;98363.59;4895099;29;19927;-61
2023/05/19 20:35:05;;;;;;;;;;;;;;;16.31;53.85;98364.03;4893909;29;19935;-62
2023/05/19 20:37:31;;;;;;;;;;;;;;;16.29;54.31;98362.47;4887874;29;20309;-62
2023/05/19 20:39:56;;;;;;;;;;;;;;;16.23;54.24;98363.03;4890676;29;19955;-61
2023/05/19 20:42:21;;;;;;;;;;;;;;;16.16;54.87;98367.19;4890192;29;20460;-61
2023/05/19 20:44:46;;;;;;;;;;;;;;;16.11;55.16;98368.44;4890281;29;19979;-61
2023/05/19 20:47:12;;;;;;;;;;;;;;;16.04;55.34;98372.59;4883443;29;19920;-61
2023/05/19 20:49:37;;;;;;;;;;;;;;;15.99;55.46;98376.63;4887458;29;19920;-62
2023/05/19 20:52:02;;;;;;;;;;;;;;;15.91;56.16;98366.72;4881924;29;19973;-61
2023/05/19 20:54:27;;;;;;;;;;;;;;;15.83;56.06;98372.69;4896289;29;20666;-61
2023/05/19 20:56:52;;;;;;;;;;;;;;;15.75;56.44;98366.38;4886578;29;19920;-62
2023/05/19 20:59:18;;;;;;;;;;;;;;;15.71;56.99;98368.44;4885036;29;19920;-61
2023/05/19 21:01:43;;;;;;;;;;;;;;;15.64;56.63;98370.75;4888012;29;19920;-62
2023/05/19 21:04:09;;;;;;;;;;;;;;;15.65;56.60;98377.72;4885681;29;19971;-61
2023/05/19 21:06:34;;;;;;;;;;;;;;;15.63;56.79;98377.03;4883819;29;20428;-63
2023/05/19 21:09:02;;;;;;;;;;;;;;;15.65;57.46;98385.63;4887298;29;19923;-61
2023/05/19 21:11:28;;;;;;;;;;;;;;;15.60;58.72;98376.44;4887718;29;20342;-61
2023/05/19 21:13:54;;;;;;;;;;;;;;;15.53;58.92;98375.31;4886032;29;20441;-62
